Time;durP1;ratioP1;P1;durP2;ratioP2;P2;SDS_P1;SDS_P2;PMS_P1;PMS_P2;Temp;Humidity;BMP_temperature;BMP_pressure;BME280_temperature;BME280_humidity;BME280_pressure;Samples;Min_cycle;Max_cycle;Signal;HPM_P1;HPM_P2
2023/01/29 00:01:05;;;;;;;62.53;56.10;;;2.90;94.70;;;;;;5012609;28;20212;-90
2023/01/29 00:03:32;;;;;;;60.23;54.10;;;2.90;94.70;;;;;;5012113;28;20183;-90
2023/01/29 00:05:58;;;;;;;59.27;53.87;;;3.00;94.80;;;;;;5012194;28;20222;-91
2023/01/29 00:08:23;;;;;;;63.17;57.37;;;3.00;94.80;;;;;;5013334;28;20201;-90
2023/01/29 00:10:49;;;;;;;59.47;53.57;;;3.00;94.90;;;;;;5012063;28;20203;-90
2023/01/29 00:13:14;;;;;;;59.77;53.90;;;3.00;94.90;;;;;;5012253;28;20181;-90
2023/01/29 00:15:40;;;;;;;59.63;53.83;;;3.00;94.90;;;;;;5012500;28;20181;-90
2023/01/29 00:18:06;;;;;;;57.90;52.10;;;3.00;94.90;;;;;;5012103;28;20224;-90
2023/01/29 00:20:32;;;;;;;57.87;52.60;;;3.00;95.00;;;;;;5012834;28;20204;-90
2023/01/29 00:22:58;;;;;;;57.97;52.73;;;3.00;95.00;;;;;;5012764;28;20175;-90
2023/01/29 00:25:24;;;;;;;57.83;51.70;;;3.00;95.00;;;;;;5012073;28;20608;-90
2023/01/29 00:27:49;;;;;;;59.67;54.07;;;3.00;95.10;;;;;;5012219;28;20221;-91
2023/01/29 00:30:17;;;;;;;62.83;57.03;;;3.00;95.10;;;;;;5013598;28;20197;-90
2023/01/29 00:32:44;;;;;;;60.30;54.67;;;3.00;95.10;;;;;;5015174;28;20228;-91
2023/01/29 00:35:10;;;;;;;59.73;54.23;;;3.00;95.10;;;;;;5013737;28;20209;-90
2023/01/29 00:37:36;;;;;;;59.30;53.77;;;3.00;95.10;;;;;;5013075;28;20200;-90
2023/01/29 00:40:02;;;;;;;60.50;54.60;;;3.00;95.20;;;;;;5012612;28;20220;-90
2023/01/29 00:45:11;;;;;;;63.57;57.27;;;3.00;95.20;;;;;;5015732;28;20164;-90
2023/01/29 00:47:37;;;;;;;61.87;56.37;;;3.00;95.20;;;;;;5016387;28;20268;-90
2023/01/29 00:50:06;;;;;;;63.13;57.33;;;3.10;95.20;;;;;;5015865;28;20201;-91
2023/01/29 00:52:32;;;;;;;63.97;57.23;;;3.10;95.20;;;;;;5015757;28;20228;-90
2023/01/29 00:55:00;;;;;;;60.43;55.10;;;3.10;95.20;;;;;;5015617;28;20170;-91
2023/01/29 00:57:28;;;;;;;58.67;53.60;;;3.00;95.20;;;;;;5015209;28;20181;-91
2023/01/29 00:59:54;;;;;;;63.27;57.20;;;3.00;95.20;;;;;;5015310;28;20268;-90
2023/01/29 01:05:06;;;;;;;62.23;56.43;;;3.00;95.20;;;;;;5016534;28;20212;-90
2023/01/29 01:07:33;;;;;;;64.83;59.03;;;3.00;95.20;;;;;;5018471;28;20221;-90
2023/01/29 01:12:42;;;;;;;65.50;59.07;;;3.00;95.20;;;;;;5021268;28;20180;-90
2023/01/29 01:15:09;;;;;;;64.10;58.20;;;3.00;95.20;;;;;;5019316;28;20241;-91
2023/01/29 01:17:35;;;;;;;68.00;61.20;;;3.00;95.20;;;;;;5023120;28;20181;-91
2023/01/29 01:20:00;;;;;;;65.37;59.57;;;3.00;95.30;;;;;;5024978;28;20273;-91
2023/01/29 01:22:26;;;;;;;64.80;58.57;;;3.00;95.30;;;;;;5022728;28;20181;-91
2023/01/29 01:24:52;;;;;;;64.13;58.27;;;3.10;95.40;;;;;;5017845;28;20181;-90
2023/01/29 01:27:18;;;;;;;65.30;59.00;;;3.10;95.40;;;;;;5016772;28;20169;-90
2023/01/29 01:29:45;;;;;;;65.00;59.23;;;3.10;95.40;;;;;;5017268;28;20205;-91
2023/01/29 01:32:11;;;;;;;64.50;58.73;;;3.10;95.40;;;;;;5018118;28;20177;-90
2023/01/29 01:34:36;;;;;;;69.67;63.63;;;3.10;95.40;;;;;;5024304;28;20170;-90
2023/01/29 01:37:02;;;;;;;69.23;63.07;;;3.10;95.40;;;;;;5019649;28;20223;-91
2023/01/29 01:39:28;;;;;;;68.70;62.40;;;3.00;95.50;;;;;;5018013;28;20198;-90
2023/01/29 01:41:54;;;;;;;72.30;65.97;;;3.00;95.50;;;;;;5015239;28;20177;-90
2023/01/29 01:44:55;;;;;;;72.13;66.03;;;3.10;95.50;;;;;;5014178;28;20706;-90
2023/01/29 01:47:40;;;;;;;74.90;68.13;;;3.00;95.50;;;;;;5014154;28;20184;-90
2023/01/29 01:50:18;;;;;;;75.87;68.83;;;3.00;95.50;;;;;;5014585;28;20228;-89
2023/01/29 01:52:48;;;;;;;72.27;65.73;;;3.00;95.50;;;;;;5015301;28;20259;-89
2023/01/29 01:55:18;;;;;;;73.40;66.67;;;3.00;95.50;;;;;;5013910;28;20201;-90
2023/01/29 01:57:49;;;;;;;69.93;63.60;;;3.00;95.50;;;;;;5013840;28;20244;-90
2023/01/29 02:00:16;;;;;;;73.60;67.13;;;3.00;95.60;;;;;;5070617;22;20692;-91
2023/01/29 02:11:21;;;;;;;75.83;69.10;;;3.10;95.60;;;;;;5017341;28;20204;-91
2023/01/29 02:13:52;;;;;;;74.97;68.73;;;3.10;95.60;;;;;;5017815;28;20549;-91
2023/01/29 02:16:19;;;;;;;78.57;71.17;;;3.10;95.60;;;;;;5014863;28;20172;-91
2023/01/29 02:18:44;;;;;;;73.53;67.10;;;3.10;95.60;;;;;;5014738;28;20631;-91
2023/01/29 02:21:31;;;;;;;73.17;67.17;;;3.10;95.60;;;;;;5015351;28;20228;-92
2023/01/29 02:24:12;;;;;;;73.20;67.00;;;3.20;95.60;;;;;;5015273;28;20174;-91
2023/01/29 02:26:55;;;;;;;77.57;70.97;;;3.10;95.60;;;;;;5014695;28;20181;-90
2023/01/29 02:29:36;;;;;;;78.40;71.40;;;3.10;95.60;;;;;;5015645;28;20251;-91
2023/01/29 02:32:22;;;;;;;72.23;66.40;;;3.10;95.60;;;;;;5016006;28;20200;-91
2023/01/29 02:35:29;;;;;;;75.37;68.87;;;3.10;95.70;;;;;;5015993;28;20162;-91
2023/01/29 02:38:06;;;;;;;74.77;68.80;;;3.10;95.60;;;;;;5015968;28;20666;-91
2023/01/29 02:40:51;;;;;;;72.23;66.63;;;3.10;95.60;;;;;;5015346;28;20201;-91
2023/01/29 02:43:23;;;;;;;71.10;64.77;;;3.10;95.60;;;;;;5015123;28;20177;-90
2023/01/29 02:46:07;;;;;;;73.27;67.23;;;3.00;95.60;;;;;;5014616;28;20181;-91
2023/01/29 02:48:57;;;;;;;67.53;62.33;;;3.00;95.60;;;;;;5015134;28;20265;-91
2023/01/29 02:51:35;;;;;;;77.00;70.40;;;3.00;95.60;;;;;;4996971;28;20733;-90
2023/01/29 02:54:07;;;;;;;77.33;70.47;;;3.00;95.60;;;;;;5016153;28;20243;-91
2023/01/29 02:57:17;;;;;;;74.27;68.20;;;3.00;95.60;;;;;;5015756;28;20162;-91
2023/01/29 02:59:54;;;;;;;72.93;66.63;;;3.00;95.60;;;;;;4975592;28;20265;-91
2023/01/29 03:02:53;;;;;;;75.67;69.33;;;3.00;95.60;;;;;;5027527;28;20189;-91
2023/01/29 03:05:27;;;;;;;80.87;74.10;;;3.00;95.60;;;;;;5015874;28;20162;-91
2023/01/29 03:07:59;;;;;;;84.43;77.20;;;3.00;95.50;;;;;;5014542;28;20168;-91
2023/01/29 03:10:36;;;;;;;76.97;71.17;;;2.90;95.50;;;;;;5016369;28;20209;-91
2023/01/29 03:13:31;;;;;;;78.67;72.47;;;2.90;95.40;;;;;;5016182;28;20627;-90
2023/01/29 03:16:17;;;;;;;77.60;70.83;;;2.90;95.40;;;;;;5017732;28;20165;-91
2023/01/29 03:18:49;;;;;;;77.07;70.43;;;2.90;95.40;;;;;;5016641;28;20166;-91
2023/01/29 03:32:37;;;;;;;76.77;71.07;;;3.00;95.50;;;;;;5016021;28;20248;-92
2023/01/29 03:35:06;;;;;;;75.93;70.57;;;3.00;95.50;;;;;;5013927;28;20177;-90
2023/01/29 03:37:36;;;;;;;79.83;73.37;;;3.10;95.60;;;;;;5013971;28;20177;-91
2023/01/29 03:40:04;;;;;;;79.97;73.93;;;3.10;95.60;;;;;;5014092;28;20197;-91
2023/01/29 03:42:51;;;;;;;84.63;77.60;;;3.10;95.60;;;;;;5013358;28;20208;-92
2023/01/29 03:45:32;;;;;;;82.33;75.87;;;3.10;95.60;;;;;;5013053;28;20632;-91
2023/01/29 03:48:36;;;;;;;82.73;76.57;;;3.10;95.60;;;;;;5013297;28;20165;-91
2023/01/29 03:51:16;;;;;;;83.83;76.70;;;3.10;95.60;;;;;;5013807;28;20221;-90
2023/01/29 03:53:46;;;;;;;82.27;75.83;;;3.10;95.60;;;;;;5013074;28;20228;-91
2023/01/29 03:56:58;;;;;;;83.80;77.07;;;3.10;95.60;;;;;;5014453;28;20176;-91
2023/01/29 03:59:41;;;;;;;81.13;74.50;;;3.10;95.60;;;;;;5004312;28;20193;-90
2023/01/29 04:02:16;;;;;;;78.77;72.77;;;3.10;95.50;;;;;;5014087;28;20196;-91
2023/01/29 04:04:45;;;;;;;85.30;78.67;;;3.00;95.50;;;;;;5015224;28;20169;-91
2023/01/29 04:07:17;;;;;;;85.80;79.00;;;3.00;95.50;;;;;;5014301;28;20181;-91
2023/01/29 04:10:09;;;;;;;82.47;75.90;;;3.00;95.50;;;;;;5015053;28;20200;-92
2023/01/29 04:12:41;;;;;;;85.10;77.87;;;3.00;95.50;;;;;;5014074;28;20620;-91
2023/01/29 04:15:14;;;;;;;89.97;81.73;;;3.00;95.50;;;;;;5014697;28;20162;-91
2023/01/29 04:17:42;;;;;;;86.03;78.83;;;3.00;95.50;;;;;;5015310;28;20176;-91
2023/01/29 04:20:09;;;;;;;81.53;74.97;;;3.00;95.50;;;;;;5017554;28;20339;-91
2023/01/29 04:22:37;;;;;;;83.40;76.53;;;3.00;95.40;;;;;;5018311;28;20177;-90
2023/01/29 04:25:08;;;;;;;81.70;75.20;;;3.00;95.40;;;;;;5018114;28;20177;-92
2023/01/29 04:27:48;;;;;;;75.30;68.73;;;3.00;95.30;;;;;;5017953;28;20169;-91
2023/01/29 04:30:54;;;;;;;76.97;71.07;;;3.00;95.20;;;;;;5016844;28;20296;-91
2023/01/29 04:33:57;;;;;;;73.90;67.53;;;2.90;95.20;;;;;;4997291;28;20236;-90
2023/01/29 04:36:44;;;;;;;76.67;69.87;;;2.90;95.10;;;;;;5018896;28;20172;-91
2023/01/29 04:39:20;;;;;;;68.73;63.43;;;3.00;95.10;;;;;;5020827;28;20176;-92
2023/01/29 04:42:03;;;;;;;71.60;65.57;;;2.90;94.90;;;;;;5019879;28;20335;-91
2023/01/29 04:44:48;;;;;;;66.80;61.53;;;2.90;94.90;;;;;;5020789;28;20162;-90
2023/01/29 04:47:37;;;;;;;69.97;63.93;;;2.90;94.80;;;;;;5019198;28;20169;-90
2023/01/29 04:50:19;;;;;;;70.80;64.60;;;2.90;94.80;;;;;;5020334;28;20213;-90
2023/01/29 04:53:06;;;;;;;61.07;56.10;;;2.90;94.60;;;;;;5020038;28;20721;-92
2023/01/29 04:55:44;;;;;;;64.37;58.97;;;2.80;94.50;;;;;;5018766;28;20170;-91
2023/01/29 04:58:32;;;;;;;70.57;64.50;;;2.90;94.50;;;;;;5020104;28;20260;-90
2023/01/29 05:00:59;;;;;;;69.20;63.03;;;2.90;94.50;;;;;;5019312;28;20310;-91
2023/01/29 05:03:27;;;;;;;71.33;65.17;;;2.90;94.40;;;;;;5019308;28;20316;-91
2023/01/29 05:05:55;;;;;;;66.13;60.67;;;2.90;94.40;;;;;;5021034;28;20212;-91
2023/01/29 05:08:23;;;;;;;64.73;58.97;;;2.90;94.40;;;;;;5020610;28;20177;-90
2023/01/29 05:10:51;;;;;;;64.40;58.90;;;2.80;94.30;;;;;;5019605;28;20205;-92
2023/01/29 05:13:19;;;;;;;67.17;61.13;;;2.90;94.30;;;;;;5018528;28;20179;-91
2023/01/29 05:15:49;;;;;;;70.43;64.47;;;2.80;94.40;;;;;;5018094;28;20177;-90
2023/01/29 05:18:15;;;;;;;66.63;61.33;;;2.80;94.40;;;;;;5016975;28;20181;-90
2023/01/29 05:20:42;;;;;;;64.70;59.73;;;2.80;94.40;;;;;;5017102;28;20224;-90
2023/01/29 05:23:16;;;;;;;62.40;56.77;;;2.90;94.40;;;;;;5017768;28;20183;-91
2023/01/29 05:25:42;;;;;;;63.40;57.90;;;2.80;94.30;;;;;;5020566;28;20214;-90
2023/01/29 05:28:17;;;;;;;63.43;58.33;;;2.90;94.30;;;;;;5020823;28;20173;-91
2023/01/29 05:30:48;;;;;;;56.13;51.70;;;2.90;94.20;;;;;;5020395;28;20223;-90
2023/01/29 05:33:19;;;;;;;57.33;52.23;;;2.90;94.10;;;;;;5018997;28;20226;-90
2023/01/29 05:35:46;;;;;;;59.73;54.33;;;2.90;94.00;;;;;;5016189;28;20193;-90
2023/01/29 05:38:12;;;;;;;55.13;50.30;;;2.90;93.90;;;;;;5015487;28;20227;-90
2023/01/29 05:40:38;;;;;;;55.00;50.13;;;3.00;93.90;;;;;;5017034;28;20197;-90
2023/01/29 05:43:04;;;;;;;54.57;49.97;;;2.90;93.80;;;;;;5017379;28;20170;-90
2023/01/29 05:45:31;;;;;;;58.17;52.33;;;2.90;93.80;;;;;;5015578;28;20173;-90
2023/01/29 05:47:58;;;;;;;58.27;52.90;;;3.00;93.70;;;;;;5015689;28;20633;-90
2023/01/29 05:50:24;;;;;;;53.30;48.40;;;3.00;93.80;;;;;;5016476;28;20578;-90
2023/01/29 05:52:59;;;;;;;51.10;46.73;;;3.00;93.70;;;;;;5016729;28;20177;-90
2023/01/29 05:55:24;;;;;;;54.90;49.83;;;3.00;93.60;;;;;;5015757;28;20176;-90
2023/01/29 05:57:50;;;;;;;51.40;46.73;;;3.00;93.60;;;;;;5014930;28;20231;-90
2023/01/29 06:00:15;;;;;;;55.07;50.17;;;3.00;93.60;;;;;;5015891;28;20205;-90
2023/01/29 06:02:41;;;;;;;51.43;47.20;;;3.00;93.60;;;;;;5015184;28;20659;-90
2023/01/29 06:05:07;;;;;;;52.43;48.33;;;3.00;93.50;;;;;;5014641;28;20272;-90
2023/01/29 06:07:32;;;;;;;53.13;48.53;;;2.90;93.60;;;;;;5014774;28;20181;-90
2023/01/29 06:09:58;;;;;;;56.20;51.33;;;2.90;93.60;;;;;;5014337;28;20241;-90
2023/01/29 06:12:25;;;;;;;55.10;50.50;;;2.90;93.70;;;;;;5014411;28;20561;-90
2023/01/29 06:14:50;;;;;;;54.00;49.60;;;2.90;93.70;;;;;;5014730;28;20178;-90
2023/01/29 06:17:16;;;;;;;54.10;49.30;;;2.90;93.70;;;;;;5014357;28;20236;-90
2023/01/29 06:19:41;;;;;;;51.87;47.30;;;2.90;93.70;;;;;;5014562;28;20204;-90
2023/01/29 06:22:07;;;;;;;47.00;43.00;;;3.00;93.60;;;;;;5015090;28;20173;-91
2023/01/29 06:24:32;;;;;;;43.23;39.50;;;3.00;93.60;;;;;;5015036;28;20177;-91
2023/01/29 06:26:58;;;;;;;49.83;45.27;;;3.10;93.50;;;;;;5015277;28;20650;-90
2023/01/29 06:29:24;;;;;;;47.70;43.80;;;3.10;93.50;;;;;;5016372;28;20181;-90
2023/01/29 06:31:49;;;;;;;44.43;40.57;;;3.10;93.40;;;;;;5017429;28;20193;-90
2023/01/29 06:34:15;;;;;;;47.77;43.67;;;3.10;93.40;;;;;;5015675;28;20181;-90
2023/01/29 06:36:40;;;;;;;48.97;44.77;;;3.10;93.40;;;;;;5014913;28;20261;-91
2023/01/29 06:39:06;;;;;;;46.23;42.10;;;3.10;93.40;;;;;;5014318;28;20184;-91
2023/01/29 06:41:32;;;;;;;44.33;40.67;;;3.10;93.30;;;;;;5014471;28;20219;-90
2023/01/29 06:43:57;;;;;;;41.50;37.97;;;3.20;93.30;;;;;;5014195;28;20231;-90
2023/01/29 06:46:23;;;;;;;41.30;37.80;;;3.20;93.10;;;;;;5014557;28;20180;-90
2023/01/29 06:48:48;;;;;;;41.73;37.80;;;3.20;92.90;;;;;;5014595;28;20229;-90
2023/01/29 06:51:14;;;;;;;41.50;38.00;;;3.20;92.80;;;;;;5014059;28;20209;-90
2023/01/29 06:53:40;;;;;;;38.60;35.13;;;3.20;92.70;;;;;;5014541;28;20237;-91
2023/01/29 06:56:06;;;;;;;39.97;36.37;;;3.10;92.60;;;;;;5014383;28;20280;-91
2023/01/29 06:58:31;;;;;;;39.30;35.80;;;3.10;92.40;;;;;;5015643;28;20173;-91
2023/01/29 07:01:09;;;;;;;38.63;35.00;;;3.10;92.40;;;;;;5014315;28;20244;-90
2023/01/29 07:03:35;;;;;;;38.47;35.10;;;3.10;92.30;;;;;;5015532;28;20635;-92
2023/01/29 07:06:01;;;;;;;35.23;32.10;;;3.10;92.40;;;;;;5014359;28;20215;-90
2023/01/29 07:08:27;;;;;;;39.97;35.73;;;3.10;92.40;;;;;;5015398;28;20177;-93
2023/01/29 07:11:00;;;;;;;41.73;37.70;;;3.10;92.40;;;;;;4998367;28;20229;-92
2023/01/29 07:13:26;;;;;;;40.60;36.70;;;3.10;92.50;;;;;;5014712;28;20182;-92
2023/01/29 07:15:52;;;;;;;35.63;32.17;;;3.10;92.50;;;;;;5015535;28;20264;-92
2023/01/29 07:18:17;;;;;;;42.33;38.03;;;3.00;92.50;;;;;;5014496;28;20184;-92
2023/01/29 07:20:43;;;;;;;39.93;35.90;;;3.10;92.50;;;;;;5013643;28;20201;-92
2023/01/29 07:23:12;;;;;;;42.10;37.87;;;3.00;92.50;;;;;;5014900;28;20658;-89
2023/01/29 07:25:39;;;;;;;43.60;39.60;;;3.10;92.40;;;;;;5013644;28;20182;-92
2023/01/29 07:28:05;;;;;;;42.37;38.17;;;3.10;92.40;;;;;;5014462;28;20326;-92
2023/01/29 07:30:30;;;;;;;41.27;37.20;;;3.10;92.40;;;;;;5014422;28;20220;-92
2023/01/29 07:33:01;;;;;;;44.80;40.30;;;3.10;92.40;;;;;;5014013;28;20181;-92
2023/01/29 07:35:27;;;;;;;47.57;42.50;;;3.10;92.40;;;;;;5014994;28;20180;-92
2023/01/29 07:37:52;;;;;;;49.10;44.37;;;3.10;92.50;;;;;;5013804;28;20241;-93
2023/01/29 07:40:18;;;;;;;43.47;39.27;;;3.20;92.50;;;;;;5013036;28;20288;-92
2023/01/29 07:42:44;;;;;;;46.60;42.30;;;3.10;92.50;;;;;;5013803;28;20181;-92
2023/01/29 07:45:10;;;;;;;45.67;41.37;;;3.10;92.50;;;;;;5013454;28;20182;-91
2023/01/29 07:47:36;;;;;;;48.73;43.57;;;3.10;92.60;;;;;;5013362;28;20217;-91
2023/01/29 07:50:03;;;;;;;48.97;43.77;;;3.10;92.60;;;;;;5013281;28;20220;-91
2023/01/29 07:52:30;;;;;;;46.63;42.33;;;3.10;92.50;;;;;;5013410;28;20188;-92
2023/01/29 07:54:55;;;;;;;48.67;43.63;;;3.10;92.60;;;;;;5016081;28;20181;-92
2023/01/29 07:57:21;;;;;;;49.63;45.00;;;3.10;92.60;;;;;;5018019;28;20557;-93
2023/01/29 07:59:46;;;;;;;51.70;46.47;;;3.00;92.70;;;;;;5018602;28;20192;-92
2023/01/29 08:02:12;;;;;;;49.40;44.50;;;3.00;92.70;;;;;;5017619;28;20196;-92
2023/01/29 08:04:37;;;;;;;50.27;45.60;;;3.10;92.80;;;;;;5017949;28;20209;-92
2023/01/29 08:07:03;;;;;;;52.13;47.13;;;3.10;92.90;;;;;;5016320;28;20272;-90
2023/01/29 08:09:30;;;;;;;57.90;51.90;;;3.10;92.90;;;;;;5016172;28;20239;-91
2023/01/29 08:11:55;;;;;;;56.03;50.77;;;3.10;93.00;;;;;;5016323;28;20208;-92
2023/01/29 08:14:22;;;;;;;60.03;54.40;;;3.10;93.00;;;;;;5017275;28;20178;-91
2023/01/29 08:16:48;;;;;;;56.50;50.70;;;3.10;93.10;;;;;;5017037;28;20205;-91
2023/01/29 08:19:13;;;;;;;59.20;53.83;;;3.10;93.20;;;;;;5016523;28;20659;-91
2023/01/29 08:21:39;;;;;;;59.97;54.00;;;3.20;93.30;;;;;;5016196;28;20200;-90
2023/01/29 08:24:06;;;;;;;62.67;56.50;;;3.20;93.40;;;;;;5016647;28;20178;-90
2023/01/29 08:26:31;;;;;;;56.07;50.70;;;3.30;93.40;;;;;;5017019;28;20197;-91
2023/01/29 08:28:57;;;;;;;62.07;55.97;;;3.20;93.50;;;;;;5015706;28;20212;-91
2023/01/29 08:31:23;;;;;;;66.67;59.97;;;3.30;93.50;;;;;;5015791;28;20208;-90
2023/01/29 08:33:48;;;;;;;61.53;55.70;;;3.30;93.60;;;;;;5015849;28;20200;-91
2023/01/29 08:36:14;;;;;;;70.20;63.43;;;3.30;93.60;;;;;;5016702;28;20626;-91
2023/01/29 08:38:40;;;;;;;75.93;67.47;;;3.30;93.70;;;;;;5016173;28;20178;-91
2023/01/29 08:41:06;;;;;;;72.23;65.07;;;3.40;93.60;;;;;;5015898;28;20687;-92
2023/01/29 08:43:31;;;;;;;74.70;67.40;;;3.40;93.60;;;;;;5015776;28;20185;-92
2023/01/29 08:45:57;;;;;;;69.27;62.90;;;3.40;93.70;;;;;;5016220;28;20183;-90
2023/01/29 08:48:24;;;;;;;75.00;67.60;;;3.40;93.70;;;;;;5016466;28;20181;-91
2023/01/29 08:50:49;;;;;;;72.93;64.73;;;3.40;93.90;;;;;;5015829;28;20264;-90
2023/01/29 08:53:15;;;;;;;82.07;73.93;;;3.50;93.90;;;;;;5015342;28;20543;-90
2023/01/29 08:55:41;;;;;;;77.30;69.70;;;3.50;93.90;;;;;;5016711;28;20227;-90
2023/01/29 08:58:09;;;;;;;85.53;77.27;;;3.50;94.10;;;;;;5015266;28;20203;-91
2023/01/29 09:00:35;;;;;;;88.93;80.33;;;3.50;94.20;;;;;;5015310;28;20244;-90
2023/01/29 09:03:00;;;;;;;84.10;76.57;;;3.50;94.20;;;;;;5015142;28;20177;-90
2023/01/29 09:05:27;;;;;;;89.73;81.53;;;3.50;94.40;;;;;;5014009;28;20177;-90
2023/01/29 09:07:55;;;;;;;90.00;82.17;;;3.50;94.60;;;;;;5014984;28;20185;-90
2023/01/29 09:10:20;;;;;;;96.23;87.33;;;3.50;94.60;;;;;;5015660;28;20219;-90
2023/01/29 09:12:46;;;;;;;98.83;89.63;;;3.50;94.70;;;;;;5016330;28;20197;-91
2023/01/29 09:15:11;;;;;;;99.50;90.33;;;3.50;94.80;;;;;;5017011;28;20170;-90
2023/01/29 09:17:37;;;;;;;100.80;91.67;;;3.50;94.90;;;;;;5016079;28;20666;-92
2023/01/29 09:20:04;;;;;;;101.20;91.87;;;3.60;94.90;;;;;;5016821;28;20194;-91
2023/01/29 09:22:30;;;;;;;93.80;85.83;;;3.60;95.00;;;;;;5014954;28;20208;-91
2023/01/29 09:24:56;;;;;;;102.70;93.37;;;3.60;95.00;;;;;;5014929;28;20182;-91
2023/01/29 09:27:21;;;;;;;104.23;94.47;;;3.60;95.10;;;;;;5015108;28;20181;-91
2023/01/29 09:29:47;;;;;;;98.17;90.07;;;3.60;95.20;;;;;;5015199;28;20232;-90
2023/01/29 09:32:12;;;;;;;106.60;96.90;;;3.60;95.20;;;;;;5015382;28;20178;-91
2023/01/29 09:34:38;;;;;;;109.57;99.63;;;3.60;95.30;;;;;;5015125;28;20591;-91
2023/01/29 09:37:03;;;;;;;104.83;95.27;;;3.60;95.30;;;;;;5014494;28;20640;-91
2023/01/29 09:39:29;;;;;;;101.80;93.00;;;3.60;95.40;;;;;;5014606;28;20178;-91
2023/01/29 09:42:19;;;;;;;106.07;96.53;;;3.60;95.40;;;;;;5014657;28;20206;-91
2023/01/29 09:45:03;;;;;;;94.30;86.50;;;3.70;95.50;;;;;;5016625;28;20231;-89
2023/01/29 09:47:32;;;;;;;100.93;92.30;;;3.60;95.50;;;;;;5015812;28;20559;-91
2023/01/29 09:50:07;;;;;;;111.30;101.60;;;3.60;95.50;;;;;;5014741;28;20208;-91
2023/01/29 09:52:45;;;;;;;103.80;94.87;;;3.70;95.50;;;;;;5018448;28;20527;-91
2023/01/29 09:55:16;;;;;;;109.83;99.47;;;3.70;95.60;;;;;;5020309;28;20170;-91
2023/01/29 09:57:44;;;;;;;112.20;101.63;;;3.70;95.60;;;;;;5020158;28;20189;-92
2023/01/29 10:00:32;;;;;;;110.13;99.93;;;3.70;95.50;;;;;;5020527;28;20213;-91
2023/01/29 10:03:27;;;;;;;111.40;101.00;;;3.70;95.50;;;;;;5017390;28;20643;-91
2023/01/29 10:06:18;;;;;;;107.50;97.60;;;3.70;95.50;;;;;;5014948;28;20663;-91
2023/01/29 10:09:11;;;;;;;113.30;102.37;;;3.70;95.50;;;;;;5016938;28;20185;-92
2023/01/29 10:11:53;;;;;;;106.20;96.77;;;3.70;95.50;;;;;;5015636;28;20304;-90
2023/01/29 10:14:57;;;;;;;104.07;94.67;;;3.70;95.40;;;;;;5016756;28;20212;-91
2023/01/29 10:17:58;;;;;;;103.80;94.53;;;3.70;95.40;;;;;;5014113;28;20177;-91
2023/01/29 10:20:32;;;;;;;107.60;97.80;;;3.80;95.30;;;;;;5013998;28;20221;-93
2023/01/29 10:23:36;;;;;;;112.00;101.47;;;3.80;95.30;;;;;;5015159;28;20174;-90
2023/01/29 10:26:02;;;;;;;103.80;93.10;;;3.80;95.20;;;;;;5011036;28;20194;-90
2023/01/29 10:28:42;;;;;;;105.63;95.30;;;3.80;95.10;;;;;;5015806;28;20194;-91
2023/01/29 10:31:16;;;;;;;84.17;75.27;;;3.90;95.00;;;;;;5017278;28;20213;-90
2023/01/29 10:33:47;;;;;;;87.17;78.03;;;3.80;94.90;;;;;;5015307;28;20177;-90
2023/01/29 10:36:19;;;;;;;84.53;75.27;;;3.90;94.80;;;;;;5013317;28;20178;-89
2023/01/29 10:38:47;;;;;;;78.57;70.37;;;3.90;94.70;;;;;;5013369;28;20539;-89
2023/01/29 10:41:25;;;;;;;96.87;87.07;;;3.90;94.60;;;;;;5013055;28;20224;-89
2023/01/29 10:44:19;;;;;;;97.47;87.73;;;3.90;94.60;;;;;;5013370;28;20170;-90
2023/01/29 10:47:22;;;;;;;101.30;91.17;;;3.90;94.50;;;;;;5013421;28;20178;-89
2023/01/29 10:49:57;;;;;;;92.30;83.70;;;3.90;94.50;;;;;;5013138;28;20219;-90
2023/01/29 10:52:37;;;;;;;93.37;84.20;;;3.90;94.30;;;;;;5013177;28;20181;-89
2023/01/29 10:55:11;;;;;;;100.83;90.90;;;3.90;94.20;;;;;;5013199;28;20770;-89
2023/01/29 10:57:52;;;;;;;85.30;77.20;;;4.00;94.20;;;;;;5014133;28;20166;-89
2023/01/29 11:00:26;;;;;;;88.03;79.20;;;4.00;94.10;;;;;;5013038;28;20219;-90
2023/01/29 11:02:51;;;;;;;92.07;82.67;;;4.00;94.00;;;;;;5013625;28;20245;-89
2023/01/29 11:05:35;;;;;;;91.37;81.73;;;4.00;94.00;;;;;;5015048;28;20633;-89
2023/01/29 11:08:13;;;;;;;90.90;82.13;;;4.00;94.00;;;;;;5012753;28;20552;-89
2023/01/29 11:11:02;;;;;;;86.67;78.07;;;4.00;93.90;;;;;;5014091;28;20229;-90
2023/01/29 11:13:33;;;;;;;75.67;68.70;;;4.00;93.90;;;;;;5013993;28;20211;-90
2023/01/29 11:15:59;;;;;;;81.00;72.47;;;4.00;93.60;;;;;;5017121;28;20256;-92
2023/01/29 11:18:24;;;;;;;74.63;67.57;;;4.00;93.60;;;;;;5017794;28;20175;-91
2023/01/29 11:21:01;;;;;;;79.73;71.40;;;4.10;93.50;;;;;;5014969;28;20587;-90
2023/01/29 11:23:32;;;;;;;76.40;68.43;;;4.00;93.40;;;;;;5016137;28;20168;-91
2023/01/29 11:25:59;;;;;;;71.33;64.07;;;4.10;93.30;;;;;;5015452;28;20189;-91
2023/01/29 11:28:47;;;;;;;79.47;71.17;;;4.10;93.20;;;;;;5012599;28;20276;-91
2023/01/29 11:31:33;;;;;;;78.60;70.13;;;4.10;93.10;;;;;;5014351;28;20215;-88
2023/01/29 11:34:05;;;;;;;71.33;64.10;;;4.10;93.00;;;;;;5014633;28;20160;-90
2023/01/29 11:36:35;;;;;;;68.27;61.57;;;4.10;92.90;;;;;;5014560;28;20173;-90
2023/01/29 11:39:15;;;;;;;74.57;66.70;;;4.10;92.80;;;;;;5013691;28;20170;-91
2023/01/29 11:41:55;;;;;;;74.73;67.07;;;4.10;92.90;;;;;;5012737;28;20242;-90
2023/01/29 11:44:28;;;;;;;71.63;64.33;;;4.10;92.80;;;;;;5012323;28;20173;-90
2023/01/29 11:46:55;;;;;;;80.83;72.27;;;4.10;93.00;;;;;;5012574;28;20182;-91
2023/01/29 11:49:33;;;;;;;81.13;73.17;;;4.10;93.10;;;;;;5013277;28;20245;-91
2023/01/29 11:52:02;;;;;;;83.37;75.30;;;4.10;93.20;;;;;;5012590;28;20197;-91
2023/01/29 11:54:47;;;;;;;77.20;69.70;;;4.10;93.30;;;;;;5013729;28;20202;-90
2023/01/29 11:57:39;;;;;;;80.47;72.93;;;4.10;93.40;;;;;;5013248;28;20169;-91
2023/01/29 12:00:17;;;;;;;77.70;70.17;;;4.10;93.50;;;;;;5008470;28;20259;-90
2023/01/29 12:02:47;;;;;;;84.47;76.27;;;4.10;93.50;;;;;;5012671;28;20226;-91
2023/01/29 12:05:14;;;;;;;85.63;77.33;;;4.10;93.60;;;;;;5012383;28;20182;-90
2023/01/29 12:07:45;;;;;;;89.37;81.00;;;4.10;93.60;;;;;;5012169;28;20186;-90
2023/01/29 12:10:35;;;;;;;79.67;72.03;;;4.10;93.70;;;;;;5012521;28;20708;-90
2023/01/29 12:13:10;;;;;;;91.40;82.07;;;4.10;93.60;;;;;;5007661;28;20189;-91
2023/01/29 12:15:37;;;;;;;78.47;71.20;;;4.10;93.70;;;;;;5012365;28;20674;-89
2023/01/29 12:18:17;;;;;;;80.70;72.97;;;4.10;93.50;;;;;;5012496;28;20190;-90
2023/01/29 12:20:53;;;;;;;82.73;74.37;;;4.20;93.60;;;;;;5013214;28;20238;-92
2023/01/29 12:23:46;;;;;;;80.50;72.57;;;4.20;93.50;;;;;;5015799;28;20273;-93
2023/01/29 12:26:44;;;;;;;75.20;68.07;;;4.20;93.40;;;;;;5012857;28;20198;-90
2023/01/29 12:29:19;;;;;;;73.83;66.33;;;4.20;93.40;;;;;;4990017;28;20218;-91
2023/01/29 12:31:58;;;;;;;74.97;67.83;;;4.20;93.20;;;;;;5012247;28;20758;-91
2023/01/29 12:34:37;;;;;;;80.77;72.57;;;4.20;93.20;;;;;;5012083;28;20236;-90
2023/01/29 12:37:41;;;;;;;77.10;69.60;;;4.30;93.20;;;;;;5012137;28;20520;-90
2023/01/29 12:40:17;;;;;;;70.03;63.00;;;4.30;93.10;;;;;;5013083;28;20196;-90
2023/01/29 12:42:54;;;;;;;73.37;65.97;;;4.30;93.00;;;;;;5015932;28;20171;-90
2023/01/29 12:45:22;;;;;;;66.40;59.70;;;4.30;92.90;;;;;;5015749;28;20625;-90
2023/01/29 12:47:55;;;;;;;70.23;62.90;;;4.30;92.70;;;;;;5015696;28;20262;-90
2023/01/29 12:50:26;;;;;;;71.27;64.37;;;4.30;92.70;;;;;;5015635;28;20245;-90
2023/01/29 12:52:59;;;;;;;71.00;64.20;;;4.30;92.80;;;;;;5016185;28;20175;-90
2023/01/29 12:55:41;;;;;;;62.57;56.63;;;4.30;92.80;;;;;;5015701;28;20171;-90
2023/01/29 12:58:14;;;;;;;65.07;58.67;;;4.30;92.70;;;;;;5015689;28;20664;-91
2023/01/29 13:00:45;;;;;;;69.10;62.20;;;4.30;92.60;;;;;;5015866;28;20287;-90
2023/01/29 13:03:23;;;;;;;54.70;49.70;;;4.30;92.60;;;;;;5015769;28;20175;-89
2023/01/29 13:06:09;;;;;;;63.53;57.17;;;4.30;92.50;;;;;;5015361;28;20292;-89
2023/01/29 13:08:41;;;;;;;68.60;61.83;;;4.30;92.40;;;;;;5014781;28;20191;-90
2023/01/29 13:11:21;;;;;;;69.53;62.40;;;4.30;92.50;;;;;;5015815;28;20284;-91
2023/01/29 13:14:05;;;;;;;68.27;61.37;;;4.30;92.40;;;;;;5020202;28;20643;-91
2023/01/29 13:16:37;;;;;;;60.27;54.03;;;4.40;92.40;;;;;;5016655;28;20177;-91
2023/01/29 13:19:30;;;;;;;58.57;52.73;;;4.30;92.30;;;;;;5016485;28;20258;-91
2023/01/29 13:21:59;;;;;;;51.27;46.40;;;4.30;92.30;;;;;;5017344;28;20206;-93
2023/01/29 13:24:33;;;;;;;64.00;57.27;;;4.40;92.20;;;;;;5017123;28;20654;-91
2023/01/29 13:27:00;;;;;;;64.33;57.67;;;4.30;92.30;;;;;;5021790;28;20171;-91
2023/01/29 13:29:29;;;;;;;67.73;60.60;;;4.30;92.20;;;;;;5018341;28;20276;-92
2023/01/29 13:31:57;;;;;;;65.33;58.83;;;4.40;92.20;;;;;;5016855;28;20203;-91